createdAt,value
2018-09-26T00:00:39.268Z,32.24
2018-09-26T00:01:39.201Z,31.29
2018-09-26T00:02:39.155Z,30.54
2018-09-26T00:03:39.117Z,29.71
2018-09-26T00:04:39.072Z,29.71
2018-09-26T00:05:39.043Z,30.54
2018-09-26T00:06:38.988Z,31.20
2018-09-26T00:07:38.926Z,32.05
2018-09-26T00:08:38.893Z,32.90
2018-09-26T00:09:38.891Z,33.00
2018-09-26T00:10:38.799Z,33.00
2018-09-26T00:11:38.751Z,32.81
2018-09-26T00:12:38.721Z,33.94
2018-09-26T00:13:38.670Z,34.04
2018-09-26T00:14:38.628Z,35.46
2018-09-26T00:15:38.583Z,35.74
2018-09-26T00:16:38.635Z,38.01
2018-09-26T00:17:38.506Z,38.67
2018-09-26T00:18:38.448Z,37.44
2018-09-26T00:19:38.398Z,34.61
2018-09-26T00:20:38.359Z,33.56
2018-09-26T00:21:38.475Z,32.53
2018-09-26T00:22:38.312Z,31.96
2018-09-26T00:23:38.401Z,32.90
2018-09-26T00:24:38.221Z,33.09
2018-09-26T00:25:38.239Z,32.15
2018-09-26T00:26:38.191Z,31.96
2018-09-26T00:27:38.054Z,32.34
2018-09-26T00:28:38.019Z,32.05
2018-09-26T00:29:38.079Z,33.00
2018-09-26T00:30:38.103Z,33.09
2018-09-26T00:31:37.931Z,32.05
2018-09-26T00:32:37.880Z,31.20
2018-09-26T00:33:37.924Z,31.20
2018-09-26T00:34:37.779Z,31.48
2018-09-26T00:35:38.058Z,32.53
2018-09-26T00:36:37.665Z,33.09
2018-09-26T00:37:37.614Z,33.37
2018-09-26T00:38:37.563Z,34.70
2018-09-26T00:39:37.501Z,35.64
2018-09-26T00:40:37.448Z,36.87
2018-09-26T00:41:37.422Z,38.01
2018-09-26T00:42:37.369Z,38.57
2018-09-26T00:43:37.318Z,38.48
2018-09-26T00:44:37.269Z,36.97
2018-09-26T00:45:37.243Z,35.64
2018-09-26T00:46:37.177Z,33.47
2018-09-26T00:47:37.145Z,32.43
2018-09-26T00:48:37.124Z,33.09
2018-09-26T00:49:37.055Z,33.00
2018-09-26T00:50:37.018Z,33.00
2018-09-26T00:51:36.970Z,33.00
2018-09-26T00:52:36.916Z,33.85
2018-09-26T00:53:36.876Z,35.93
2018-09-26T00:54:36.843Z,36.78
2018-09-26T00:55:36.790Z,37.16
2018-09-26T00:56:36.813Z,37.44
2018-09-26T00:57:36.686Z,38.10
2018-09-26T00:58:36.641Z,38.09
2018-09-26T00:59:36.601Z,37.06
2018-09-26T01:00:36.554Z,35.46
2018-09-26T01:01:36.496Z,34.89
2018-09-26T01:02:36.466Z,34.61
2018-09-26T01:03:36.429Z,33.00
2018-09-26T01:04:36.460Z,31.48
2018-09-26T01:05:36.363Z,32.15
2018-09-26T01:06:36.286Z,31.77
2018-09-26T01:07:36.282Z,31.20
2018-09-26T01:08:36.188Z,31.67
2018-09-26T01:09:36.141Z,32.90
2018-09-26T01:10:36.094Z,34.23
2018-09-26T01:11:36.074Z,34.23
2018-09-26T01:12:35.999Z,34.13
2018-09-26T01:13:35.947Z,34.13
2018-09-26T01:14:35.908Z,36.68
2018-09-26T01:15:35.882Z,37.44
2018-09-26T01:16:35.862Z,37.35
2018-09-26T01:17:35.776Z,36.78
2018-09-26T01:18:35.744Z,35.83
2018-09-26T01:19:35.680Z,35.17
2018-09-26T01:20:35.642Z,35.93
2018-09-26T01:21:35.593Z,36.21
2018-09-26T01:22:35.553Z,38.10
2018-09-26T01:23:35.506Z,39.03
2018-09-26T01:24:35.458Z,38.93
2018-09-26T01:25:35.429Z,39.88
2018-09-26T01:26:35.407Z,41.39
2018-09-26T01:27:35.327Z,40.54
2018-09-26T01:28:35.305Z,39.50
2018-09-26T01:29:35.238Z,38.56
2018-09-26T01:30:35.184Z,36.12
2018-09-26T01:31:35.161Z,34.70
2018-09-26T01:32:35.125Z,33.94
2018-09-26T01:33:35.095Z,32.81
2018-09-26T01:34:35.006Z,31.20
2018-09-26T01:35:34.991Z,31.10
2018-09-26T01:36:34.942Z,31.29
2018-09-26T01:37:34.881Z,31.48
2018-09-26T01:38:34.861Z,33.09
2018-09-26T01:39:34.818Z,32.43
2018-09-26T01:40:34.743Z,31.96
2018-09-26T01:41:34.736Z,32.53
2018-09-26T01:42:34.651Z,32.15
2018-09-26T01:43:34.611Z,32.71
2018-09-26T01:44:34.552Z,33.85
2018-09-26T01:45:34.525Z,35.08
2018-09-26T01:46:34.489Z,35.46
2018-09-26T01:47:34.444Z,34.61
2018-09-26T01:48:34.381Z,32.71
2018-09-26T01:49:34.346Z,32.43
2018-09-26T01:50:34.307Z,32.34
2018-09-26T01:51:34.265Z,32.53
2018-09-26T01:52:34.202Z,33.00
2018-09-26T01:53:34.157Z,33.00
2018-09-26T01:54:34.133Z,33.00
2018-09-26T01:55:34.065Z,32.71
2018-09-26T01:56:34.016Z,32.90
2018-09-26T01:57:33.978Z,33.09
2018-09-26T01:58:33.942Z,33.00
2018-09-26T01:59:33.914Z,33.00
2018-09-26T02:00:33.840Z,32.05
2018-09-26T02:01:33.833Z,31.58
2018-09-26T02:02:33.754Z,32.24
2018-09-26T02:03:33.766Z,32.81
2018-09-26T02:04:33.683Z,33.18
2018-09-26T02:05:33.621Z,33.09
2018-09-26T02:06:33.620Z,33.37
2018-09-26T02:07:33.521Z,33.56
2018-09-26T02:08:33.474Z,34.04
2018-09-26T02:09:33.423Z,34.13
2018-09-26T02:10:33.405Z,34.80
2018-09-26T02:11:33.389Z,35.93
2018-09-26T02:12:33.311Z,37.54
2018-09-26T02:13:33.276Z,38.48
2018-09-26T02:14:33.207Z,38.10
2018-09-26T02:15:33.189Z,36.68
2018-09-26T02:16:33.187Z,33.85
2018-09-26T02:17:33.083Z,33.47
2018-09-26T02:18:33.026Z,34.23
2018-09-26T02:19:33.014Z,33.00
2018-09-26T02:20:32.940Z,32.15
2018-09-26T02:21:32.914Z,31.86
2018-09-26T02:22:32.850Z,33.09
2018-09-26T02:23:32.832Z,33.28
2018-09-26T02:24:32.815Z,33.28
2018-09-26T02:25:32.748Z,33.94
2018-09-26T02:26:32.683Z,34.23
2018-09-26T02:27:32.616Z,34.80
2018-09-26T02:28:32.581Z,34.70
2018-09-26T02:29:32.519Z,33.85
2018-09-26T02:30:32.481Z,34.61
2018-09-26T02:31:32.436Z,36.59
2018-09-26T02:32:32.424Z,37.44
2018-09-26T02:33:32.365Z,37.92
2018-09-26T02:34:32.330Z,39.52
2018-09-26T02:35:32.263Z,40.47
2018-09-26T02:36:32.210Z,39.24
2018-09-26T02:37:32.172Z,38.57
2018-09-26T02:38:32.117Z,39.40
2018-09-26T02:39:32.066Z,42.05
2018-09-26T02:40:32.033Z,42.15
2018-09-26T02:41:31.997Z,41.86
2018-09-26T02:42:31.941Z,42.71
2018-09-26T02:43:31.880Z,47.53
2018-09-26T02:44:31.844Z,47.16
2018-09-26T02:45:31.838Z,44.70
2018-09-26T02:46:31.776Z,42.05
2018-09-26T02:47:31.724Z,41.02
2018-09-26T02:48:31.672Z,41.02
2018-09-26T02:49:31.609Z,40.83
2018-09-26T02:50:31.576Z,42.05
2018-09-26T02:51:31.533Z,41.86
2018-09-26T02:52:31.489Z,40.73
2018-09-26T02:53:31.441Z,40.54
2018-09-26T02:54:32.455Z,41.30
2018-09-26T02:55:31.382Z,41.77
2018-09-26T02:56:31.296Z,41.02
2018-09-26T02:57:31.286Z,40.26
2018-09-26T02:58:31.220Z,41.96
2018-09-26T02:59:31.176Z,41.86
2018-09-26T03:00:31.133Z,40.64
2018-09-26T03:01:31.073Z,38.46
2018-09-26T03:02:31.058Z,38.65
2018-09-26T03:03:30.979Z,39.50
2018-09-26T03:04:30.943Z,39.50
2018-09-26T03:05:30.959Z,39.03
2018-09-26T03:06:30.848Z,39.31
2018-09-26T03:07:30.798Z,40.35
2018-09-26T03:08:30.764Z,41.96
2018-09-26T03:09:30.727Z,42.15
2018-09-26T03:10:30.657Z,43.00
2018-09-26T03:11:30.628Z,41.96
2018-09-26T03:12:30.599Z,40.16
2018-09-26T03:13:30.540Z,38.37
2018-09-26T03:14:30.494Z,35.72
2018-09-26T03:15:30.451Z,34.13
2018-09-26T03:16:30.445Z,33.75
2018-09-26T03:17:30.383Z,35.36
2018-09-26T03:18:30.417Z,36.40
2018-09-26T03:19:30.261Z,36.57
2018-09-26T03:20:30.270Z,36.00
2018-09-26T03:21:30.163Z,34.51
2018-09-26T03:22:30.121Z,34.04
2018-09-26T03:23:30.091Z,33.18
2018-09-26T03:24:30.097Z,33.09
2018-09-26T03:25:29.985Z,34.13
2018-09-26T03:26:29.956Z,34.61
2018-09-26T03:27:29.919Z,34.61
2018-09-26T03:28:29.857Z,34.70
2018-09-26T03:29:29.814Z,35.27
2018-09-26T03:30:29.787Z,34.80
2018-09-26T03:31:29.745Z,35.93
2018-09-26T03:32:29.674Z,36.76
2018-09-26T03:33:29.654Z,37.16
2018-09-26T03:34:29.598Z,37.90
2018-09-26T03:35:29.568Z,39.22
2018-09-26T03:36:29.534Z,41.02
2018-09-26T03:37:29.497Z,39.40
2018-09-26T03:38:29.428Z,40.26
2018-09-26T03:39:29.346Z,41.30
2018-09-26T03:40:29.302Z,42.52
2018-09-26T03:41:29.267Z,44.23
2018-09-26T03:42:29.249Z,42.15
2018-09-26T03:43:29.161Z,41.02
2018-09-26T03:44:29.153Z,40.83
2018-09-26T03:45:29.139Z,40.73
2018-09-26T03:46:29.030Z,39.69
2018-09-26T03:47:28.984Z,37.54
2018-09-26T03:48:28.941Z,38.46
2018-09-26T03:49:28.936Z,39.12
2018-09-26T03:50:28.870Z,41.11
2018-09-26T03:51:28.805Z,41.20
2018-09-26T03:52:28.764Z,41.67
2018-09-26T03:53:28.857Z,43.76
2018-09-26T03:54:28.669Z,42.52
2018-09-26T03:55:28.634Z,40.83
2018-09-26T03:56:28.566Z,40.35
2018-09-26T03:57:28.578Z,41.20
2018-09-26T03:58:28.607Z,44.04
2018-09-26T03:59:28.535Z,45.45
2018-09-26T04:00:28.393Z,46.59
2018-09-26T04:01:28.453Z,48.76
2018-09-26T04:02:28.457Z,46.50
2018-09-26T04:03:28.262Z,42.62
2018-09-26T04:04:28.224Z,40.73
2018-09-26T04:05:28.176Z,38.65
2018-09-26T04:06:28.143Z,35.46
2018-09-26T04:07:28.080Z,34.04
2018-09-26T04:08:28.091Z,34.23
2018-09-26T04:09:28.003Z,35.93
2018-09-26T04:10:27.950Z,36.78
2018-09-26T04:11:27.918Z,36.68
2018-09-26T04:12:27.906Z,36.02
2018-09-26T04:13:27.874Z,35.83
2018-09-26T04:14:28.883Z,35.74
2018-09-26T04:15:27.818Z,36.12
2018-09-26T04:16:27.673Z,37.25
2018-09-26T04:17:27.629Z,38.39
2018-09-26T04:18:27.596Z,38.28
2018-09-26T04:19:27.533Z,37.25
2018-09-26T04:20:27.564Z,36.21
2018-09-26T04:21:27.670Z,36.12
2018-09-26T04:22:27.400Z,36.87
2018-09-26T04:23:27.383Z,37.73
2018-09-26T04:24:27.312Z,38.67
2018-09-26T04:25:27.272Z,39.40
2018-09-26T04:26:27.360Z,39.31
2018-09-26T04:27:27.366Z,39.22
2018-09-26T04:28:27.133Z,37.92
2018-09-26T04:29:27.094Z,35.93
2018-09-26T04:30:27.054Z,33.85
2018-09-26T04:31:27.000Z,33.00
2018-09-26T04:32:26.990Z,32.43
2018-09-26T04:33:26.992Z,32.53
2018-09-26T04:34:26.889Z,33.09
2018-09-26T04:35:26.816Z,34.13
2018-09-26T04:36:26.767Z,34.32
2018-09-26T04:37:26.731Z,34.13
2018-09-26T04:38:26.723Z,33.94
2018-09-26T04:39:26.679Z,34.04
2018-09-26T04:40:26.575Z,34.80
2018-09-26T04:41:26.538Z,35.17
2018-09-26T04:42:26.605Z,35.55
2018-09-26T04:43:26.534Z,34.32
2018-09-26T04:44:26.410Z,33.94
2018-09-26T04:45:26.353Z,34.51
2018-09-26T04:46:26.308Z,34.42
2018-09-26T04:47:26.299Z,35.17
2018-09-26T04:48:26.236Z,35.64
2018-09-26T04:49:26.201Z,35.83
2018-09-26T04:50:26.130Z,35.64
2018-09-26T04:51:26.083Z,35.08
2018-09-26T04:52:26.044Z,34.70
2018-09-26T04:53:25.992Z,35.46
2018-09-26T04:54:25.970Z,37.06
2018-09-26T04:55:25.934Z,37.63
2018-09-26T04:56:25.858Z,40.19
2018-09-26T04:57:25.826Z,38.01
2018-09-26T04:58:25.766Z,37.06
2018-09-26T04:59:25.727Z,36.40
2018-09-26T05:00:25.696Z,37.82
2018-09-26T05:01:25.645Z,38.29
2018-09-26T05:02:25.603Z,38.48
2018-09-26T05:03:25.549Z,39.24
2018-09-26T05:04:25.544Z,38.29
2018-09-26T05:05:25.488Z,33.75
2018-09-26T05:06:25.407Z,32.90
2018-09-26T05:07:25.382Z,33.94
2018-09-26T05:08:25.379Z,34.04
2018-09-26T05:09:25.272Z,34.70
2018-09-26T05:10:25.262Z,35.93
2018-09-26T05:11:25.197Z,36.59
2018-09-26T05:12:25.165Z,37.25
2018-09-26T05:13:25.116Z,38.95
2018-09-26T05:14:25.099Z,39.24
2018-09-26T05:15:24.997Z,39.24
2018-09-26T05:16:24.975Z,40.28
2018-09-26T05:17:24.909Z,39.33
2018-09-26T05:18:24.881Z,38.20
2018-09-26T05:19:24.840Z,37.44
2018-09-26T05:20:24.793Z,36.87
2018-09-26T05:21:24.741Z,35.08
2018-09-26T05:22:24.685Z,34.04
2018-09-26T05:23:24.652Z,32.81
2018-09-26T05:24:24.626Z,33.39
2018-09-26T05:25:24.575Z,34.44
2018-09-26T05:26:24.585Z,35.57
2018-09-26T05:27:24.474Z,36.23
2018-09-26T05:28:24.416Z,37.25
2018-09-26T05:29:24.370Z,38.50
2018-09-26T05:30:24.356Z,39.07
2018-09-26T05:31:24.276Z,38.10
2018-09-26T05:32:24.235Z,37.65
2018-09-26T05:33:24.201Z,37.84
2018-09-26T05:34:24.148Z,38.31
2018-09-26T05:35:24.106Z,38.41
2018-09-26T05:36:24.070Z,38.50
2018-09-26T05:37:24.029Z,39.73
2018-09-26T05:38:23.991Z,39.54
2018-09-26T05:39:23.934Z,38.98
2018-09-26T05:40:23.913Z,39.45
2018-09-26T05:41:23.836Z,38.98
2018-09-26T05:42:23.800Z,40.01
2018-09-26T05:43:23.733Z,40.77
2018-09-26T05:44:23.712Z,41.34
2018-09-26T05:45:23.645Z,41.82
2018-09-26T05:46:23.605Z,41.91
2018-09-26T05:47:23.581Z,41.06
2018-09-26T05:48:23.547Z,41.34
2018-09-26T05:49:23.460Z,41.82
2018-09-26T05:50:23.454Z,42.66
2018-09-26T05:51:23.386Z,42.19
2018-09-26T05:52:23.412Z,41.91
2018-09-26T05:53:23.295Z,41.91
2018-09-26T05:54:23.245Z,42.47
2018-09-26T05:55:23.205Z,42.85
2018-09-26T05:56:23.163Z,42.66
2018-09-26T05:57:23.132Z,41.82
2018-09-26T05:58:23.056Z,39.45
2018-09-26T05:59:23.023Z,38.98
2018-09-26T06:00:23.012Z,41.25
2018-09-26T06:01:22.963Z,42.19
2018-09-26T06:02:22.887Z,43.44
2018-09-26T06:03:22.834Z,45.43
2018-09-26T06:04:22.814Z,45.72
2018-09-26T06:05:22.784Z,46.85
2018-09-26T06:06:22.740Z,47.70
2018-09-26T06:07:22.677Z,46.56
2018-09-26T06:08:22.649Z,45.05
2018-09-26T06:09:22.579Z,45.05
2018-09-26T06:10:22.532Z,44.77
2018-09-26T06:11:22.566Z,45.34
2018-09-26T06:12:22.445Z,46.28
2018-09-26T06:13:22.413Z,47.32
2018-09-26T06:14:22.347Z,48.08
2018-09-26T06:15:22.316Z,49.31
2018-09-26T06:16:22.268Z,49.88
2018-09-26T06:17:22.225Z,51.01
2018-09-26T06:18:22.184Z,52.72
2018-09-26T06:19:22.143Z,53.66
2018-09-26T06:20:22.115Z,53.59
2018-09-26T06:21:22.061Z,55.02
2018-09-26T06:22:22.026Z,55.21
2018-09-26T06:23:21.959Z,55.77
2018-09-26T06:24:21.916Z,55.96
2018-09-26T06:25:21.901Z,56.53
2018-09-26T06:26:21.835Z,55.77
2018-09-26T06:27:21.794Z,56.06
2018-09-26T06:28:21.788Z,55.87
2018-09-26T06:29:21.717Z,56.06
2018-09-26T06:30:21.671Z,56.53
2018-09-26T06:31:21.634Z,57.95
2018-09-26T06:32:21.560Z,58.24
2018-09-26T06:33:21.519Z,57.48
2018-09-26T06:34:21.482Z,56.72
2018-09-26T06:35:21.434Z,56.06
2018-09-26T06:36:21.383Z,55.68
2018-09-26T06:37:21.356Z,55.68
2018-09-26T06:38:21.305Z,55.43
2018-09-26T06:39:21.284Z,53.25
2018-09-26T06:40:21.241Z,53.97
2018-09-26T06:41:21.171Z,50.49
2018-09-26T06:42:21.157Z,49.27
2018-09-26T06:43:21.125Z,50.40
2018-09-26T06:44:21.050Z,48.70
2018-09-26T06:45:21.028Z,43.01
2018-09-26T06:46:20.953Z,40.93
2018-09-26T06:47:20.921Z,38.46
2018-09-26T06:48:20.897Z,39.72
2018-09-26T06:49:20.826Z,37.73
2018-09-26T06:50:20.788Z,34.78
2018-09-26T06:51:20.744Z,32.14
2018-09-26T06:52:20.715Z,30.62
2018-09-26T06:53:20.642Z,37.25
2018-09-26T06:54:20.631Z,47.02
2018-09-26T06:55:20.582Z,43.79
2018-09-26T06:56:20.534Z,43.15
2018-09-26T06:57:20.497Z,47.99
2018-09-26T06:58:20.447Z,48.75
2018-09-26T06:59:20.429Z,51.59
2018-09-26T07:00:20.395Z,61.46
2018-09-26T07:01:20.320Z,60.06
2018-09-26T07:02:20.276Z,63.95
2018-09-26T07:03:20.233Z,65.37
2018-09-26T07:04:20.213Z,73.63
2018-09-26T07:05:20.157Z,82.74
2018-09-26T07:06:20.126Z,92.37
2018-09-26T07:07:20.082Z,87.43
2018-09-26T07:08:20.048Z,94.74
2018-09-26T07:09:19.984Z,91.47
2018-09-26T07:10:19.959Z,98.31
2018-09-26T07:11:19.929Z,99.11
2018-09-26T07:12:20.018Z,93.51
2018-09-26T07:13:19.833Z,99.99
2018-09-26T07:14:19.820Z,99.99
2018-09-26T07:15:19.771Z,99.99
2018-09-26T07:16:19.733Z,99.99
2018-09-26T07:17:19.717Z,99.99
2018-09-26T07:18:19.637Z,99.99
2018-09-26T07:19:19.639Z,99.99
2018-09-26T07:20:19.556Z,99.99
2018-09-26T07:21:19.523Z,99.99
2018-09-26T07:22:19.512Z,99.99
2018-09-26T07:23:19.494Z,99.99
2018-09-26T07:24:19.443Z,99.99
2018-09-26T07:25:19.376Z,99.99
2018-09-26T07:26:19.362Z,99.99
2018-09-26T07:27:19.335Z,99.99
2018-09-26T07:28:19.258Z,99.99
2018-09-26T07:29:19.240Z,99.99
2018-09-26T07:30:19.190Z,99.99
2018-09-26T07:31:19.178Z,99.99
2018-09-26T07:32:19.167Z,99.99
2018-09-26T07:33:19.097Z,96.55
2018-09-26T07:34:19.032Z,93.70
2018-09-26T07:35:19.008Z,99.99
2018-09-26T07:36:18.954Z,99.99
2018-09-26T07:37:18.929Z,99.88
2018-09-26T07:38:18.911Z,97.12
2018-09-26T07:39:18.853Z,97.31
2018-09-26T07:40:18.802Z,99.99
2018-09-26T07:41:18.776Z,99.99
2018-09-26T07:42:18.735Z,95.79
2018-09-26T07:43:18.692Z,97.45
2018-09-26T07:44:18.756Z,96.60
2018-09-26T07:45:18.631Z,99.84
2018-09-26T07:46:18.585Z,99.99
2018-09-26T07:47:18.552Z,99.99
2018-09-26T07:48:18.501Z,99.07
2018-09-26T07:49:18.493Z,98.46
2018-09-26T07:50:18.420Z,99.99
2018-09-26T07:51:18.404Z,99.99
2018-09-26T07:52:18.341Z,99.99
2018-09-26T07:53:18.301Z,99.99
2018-09-26T07:54:18.267Z,99.99
2018-09-26T07:55:18.226Z,99.99
2018-09-26T07:56:18.204Z,99.99
2018-09-26T07:57:18.180Z,99.99
2018-09-26T07:58:18.129Z,99.99
2018-09-26T07:59:18.095Z,99.99
2018-09-26T08:00:18.045Z,99.99
2018-09-26T08:01:18.044Z,99.99
2018-09-26T08:02:17.974Z,99.99
2018-09-26T08:03:17.962Z,99.99
2018-09-26T08:04:17.899Z,99.99
2018-09-26T08:05:17.882Z,99.99
2018-09-26T08:06:17.847Z,99.99
2018-09-26T08:07:17.816Z,99.99
2018-09-26T08:08:17.756Z,99.99
2018-09-26T08:09:17.725Z,99.99
2018-09-26T08:10:17.707Z,99.99
2018-09-26T08:11:18.330Z,99.99
2018-09-26T08:12:17.612Z,99.99
2018-09-26T08:13:17.573Z,99.99
2018-09-26T08:14:17.528Z,97.32
2018-09-26T08:15:17.493Z,94.89
2018-09-26T08:16:17.473Z,99.37
2018-09-26T08:17:17.444Z,99.99
2018-09-26T08:18:17.497Z,99.99
2018-09-26T08:19:17.353Z,99.99
2018-09-26T08:20:17.335Z,99.99
2018-09-26T08:21:17.309Z,93.17
2018-09-26T08:22:17.246Z,84.48
2018-09-26T08:23:17.232Z,78.94
2018-09-26T08:24:17.279Z,79.99
2018-09-26T08:25:17.139Z,78.47
2018-09-26T08:26:17.100Z,83.72
2018-09-26T08:27:17.062Z,97.94
2018-09-26T08:28:17.029Z,96.42
2018-09-26T08:29:17.000Z,99.08
2018-09-26T08:30:16.974Z,97.66
2018-09-26T08:31:16.932Z,85.15
2018-09-26T08:32:16.907Z,86.87
2018-09-26T08:33:16.872Z,83.53
2018-09-26T08:34:16.816Z,84.77
2018-09-26T08:35:16.814Z,85.82
2018-09-26T08:36:16.775Z,81.71
2018-09-26T08:37:16.706Z,90.97
2018-09-26T08:38:16.663Z,88.59
2018-09-26T08:39:16.629Z,82.19
2018-09-26T08:40:16.629Z,79.17
2018-09-26T08:41:16.582Z,79.36
2018-09-26T08:42:16.554Z,77.21
2018-09-26T08:43:16.500Z,74.28
2018-09-26T08:44:16.548Z,73.33
2018-09-26T08:45:16.420Z,70.68
2018-09-26T08:46:16.389Z,71.30
2018-09-26T08:47:16.359Z,72.29
2018-09-26T08:48:16.314Z,67.82
2018-09-26T08:49:16.280Z,66.42
2018-09-26T08:50:16.277Z,65.36
2018-09-26T08:51:16.235Z,64.25
2018-09-26T08:52:16.187Z,59.80
2018-09-26T08:53:16.167Z,60.38
2018-09-26T08:54:16.120Z,60.09
2018-09-26T08:55:16.103Z,60.54
2018-09-26T08:56:16.068Z,61.79
2018-09-26T08:57:16.029Z,62.46
2018-09-26T08:58:15.988Z,61.79
2018-09-26T08:59:15.946Z,62.71
2018-09-26T09:00:15.944Z,62.46
2018-09-26T09:01:15.887Z,62.26
2018-09-26T09:02:15.874Z,60.09
2018-09-26T09:03:15.823Z,59.13
2018-09-26T09:04:15.787Z,57.50
2018-09-26T09:05:15.791Z,58.20
2018-09-26T09:06:15.776Z,58.59
2018-09-26T09:07:15.734Z,60.25
2018-09-26T09:08:15.689Z,57.46
2018-09-26T09:09:15.675Z,56.12
2018-09-26T09:10:15.619Z,56.29
2018-09-26T09:11:15.604Z,55.07
2018-09-26T09:12:15.562Z,59.32
2018-09-26T09:13:15.535Z,55.07
2018-09-26T09:14:15.527Z,56.12
2018-09-26T09:15:15.496Z,55.83
2018-09-26T09:16:15.457Z,55.93
2018-09-26T09:17:15.442Z,57.01
2018-09-26T09:18:15.381Z,55.60
2018-09-26T09:19:15.346Z,54.93
2018-09-26T09:20:15.412Z,52.00
2018-09-26T09:21:15.306Z,51.69
2018-09-26T09:22:15.269Z,51.67
2018-09-26T09:23:15.237Z,53.11
2018-09-26T09:24:15.232Z,52.81
2018-09-26T09:25:15.199Z,50.90
2018-09-26T09:26:15.172Z,49.38
2018-09-26T09:27:29.926Z,49.38
2018-09-26T09:28:15.106Z,49.89
2018-09-26T09:29:15.066Z,49.15
2018-09-26T09:30:15.051Z,46.55
2018-09-26T09:31:15.021Z,46.72
2018-09-26T09:32:15.042Z,47.31
2018-09-26T09:33:14.982Z,47.80
2018-09-26T09:34:14.944Z,46.74
2018-09-26T09:35:14.920Z,47.05
2018-09-26T09:36:14.902Z,45.90
2018-09-26T09:37:14.887Z,46.11
2018-09-26T09:38:14.901Z,46.09
2018-09-26T09:39:14.811Z,46.93
2018-09-26T09:40:14.854Z,47.13
2018-09-26T09:41:14.777Z,48.33
2018-09-26T09:42:14.731Z,47.75
2018-09-26T09:43:14.744Z,48.06
2018-09-26T09:44:14.762Z,46.98
2018-09-26T09:45:14.664Z,45.36
2018-09-26T09:46:14.638Z,44.69
2018-09-26T09:47:14.638Z,45.83
2018-09-26T09:48:14.585Z,44.79
2018-09-26T09:49:14.571Z,44.71
2018-09-26T09:50:14.548Z,43.55
2018-09-26T09:51:14.504Z,45.48
2018-09-26T09:52:14.484Z,45.10
2018-09-26T09:53:14.478Z,42.71
2018-09-26T09:54:14.430Z,41.82
2018-09-26T09:55:14.509Z,43.54
2018-09-26T09:56:14.460Z,43.46
2018-09-26T09:57:14.386Z,42.79
2018-09-26T09:58:14.338Z,43.65
2018-09-26T09:59:14.316Z,42.79
2018-09-26T10:00:14.289Z,42.05
2018-09-26T10:01:14.261Z,40.99
2018-09-26T10:02:14.261Z,41.36
2018-09-26T10:03:14.213Z,42.69
2018-09-26T10:04:14.196Z,43.55
2018-09-26T10:05:14.176Z,42.02
2018-09-26T10:06:14.141Z,42.09
2018-09-26T10:07:14.154Z,44.76
2018-09-26T10:08:14.174Z,45.63
2018-09-26T10:09:14.100Z,42.74
2018-09-26T10:10:14.064Z,41.88
2018-09-26T10:11:14.076Z,41.86
2018-09-26T10:12:14.008Z,44.93
2018-09-26T10:13:13.981Z,45.36
2018-09-26T10:14:13.992Z,42.79
2018-09-26T10:15:13.948Z,41.32
2018-09-26T10:16:13.913Z,42.07
2018-09-26T10:17:13.891Z,41.89
2018-09-26T10:18:13.876Z,41.78
2018-09-26T10:19:13.839Z,42.86
2018-09-26T10:20:13.880Z,42.11
2018-09-26T10:21:13.808Z,41.44
2018-09-26T10:22:13.766Z,41.34
2018-09-26T10:23:13.749Z,41.71
2018-09-26T10:24:13.725Z,42.21
2018-09-26T10:25:13.765Z,41.92
2018-09-26T10:26:13.732Z,41.84
2018-09-26T10:27:13.660Z,43.98
2018-09-26T10:28:13.620Z,40.92
2018-09-26T10:29:13.638Z,38.68
2018-09-26T10:30:13.591Z,39.37
2018-09-26T10:31:13.555Z,38.41
2018-09-26T10:32:13.566Z,38.60
2018-09-26T10:33:13.497Z,38.21
2018-09-26T10:34:13.505Z,38.68
2018-09-26T10:35:13.477Z,38.39
2018-09-26T10:36:13.452Z,40.47
2018-09-26T10:37:13.455Z,41.36
2018-09-26T10:38:13.406Z,40.09
2018-09-26T10:39:13.372Z,41.72
2018-09-26T10:40:13.344Z,42.02
2018-09-26T10:41:13.326Z,39.91
2018-09-26T10:42:13.392Z,40.11
2018-09-26T10:43:13.293Z,38.66
2018-09-26T10:44:13.313Z,40.03
2018-09-26T10:45:13.234Z,40.05
2018-09-26T10:46:13.217Z,39.20
2018-09-26T10:47:13.178Z,39.37
2018-09-26T10:48:13.156Z,38.71
2018-09-26T10:49:13.145Z,37.75
2018-09-26T10:50:13.174Z,38.29
2018-09-26T10:51:13.098Z,38.12
2018-09-26T10:52:13.064Z,37.25
2018-09-26T10:53:13.186Z,37.21
2018-09-26T10:54:13.027Z,38.76
2018-09-26T10:55:13.014Z,38.37
2018-09-26T10:56:12.994Z,40.24
2018-09-26T10:57:13.001Z,38.70
2018-09-26T10:58:12.927Z,38.28
2018-09-26T10:59:12.889Z,40.59
2018-09-26T11:00:12.873Z,41.17
2018-09-26T11:01:12.845Z,40.57
2018-09-26T11:02:12.888Z,39.97
2018-09-26T11:03:12.810Z,41.59
2018-09-26T11:04:12.860Z,41.78
2018-09-26T11:05:12.771Z,41.78
2018-09-26T11:06:12.746Z,40.99
2018-09-26T11:07:12.704Z,41.08
2018-09-26T11:08:12.731Z,41.95
2018-09-26T11:09:12.670Z,41.95
2018-09-26T11:10:12.700Z,44.09
2018-09-26T11:11:12.657Z,42.14
2018-09-26T11:12:12.598Z,41.78
2018-09-26T11:13:12.598Z,42.05
2018-09-26T11:14:12.570Z,42.70
2018-09-26T11:15:12.588Z,42.72
2018-09-26T11:16:12.519Z,42.00
2018-09-26T11:17:12.526Z,41.93
2018-09-26T11:18:12.438Z,41.82
2018-09-26T11:19:12.422Z,42.10
2018-09-26T11:20:12.454Z,43.66
2018-09-26T11:21:12.401Z,41.83
2018-09-26T11:22:12.349Z,41.83
2018-09-26T11:23:12.335Z,41.83
2018-09-26T11:24:12.314Z,44.82
2018-09-26T11:25:12.288Z,41.86
2018-09-26T11:26:12.318Z,41.86
2018-09-26T11:27:12.230Z,42.74
2018-09-26T11:28:12.233Z,43.54
2018-09-26T11:29:12.172Z,43.05
2018-09-26T11:30:12.138Z,41.97
2018-09-26T11:31:12.106Z,41.28
2018-09-26T11:32:12.156Z,41.83
2018-09-26T11:33:12.110Z,42.12
2018-09-26T11:34:12.092Z,42.20
2018-09-26T11:35:12.015Z,41.91
2018-09-26T11:36:11.971Z,41.89
2018-09-26T11:37:11.975Z,44.17
2018-09-26T11:38:11.985Z,44.84
2018-09-26T11:39:11.899Z,46.09
2018-09-26T11:40:11.877Z,45.35
2018-09-26T11:41:11.850Z,44.38
2018-09-26T11:42:11.811Z,44.70
2018-09-26T11:43:11.795Z,43.35
2018-09-26T11:44:11.815Z,44.22
2018-09-26T11:45:11.742Z,44.51
2018-09-26T11:46:11.728Z,46.26
2018-09-26T11:47:11.688Z,46.36
2018-09-26T11:48:11.681Z,45.85
2018-09-26T11:49:11.632Z,44.79
2018-09-26T11:50:11.624Z,44.31
2018-09-26T11:51:11.565Z,46.12
2018-09-26T11:52:11.554Z,45.92
2018-09-26T11:53:11.526Z,45.71
2018-09-26T11:54:11.491Z,48.02
2018-09-26T11:55:11.457Z,52.62
2018-09-26T11:56:11.471Z,49.84
2018-09-26T11:57:11.393Z,47.82
2018-09-26T11:58:11.401Z,48.02
2018-09-26T11:59:11.355Z,48.21
2018-09-26T12:00:11.319Z,48.52
2018-09-26T12:01:11.285Z,45.61
2018-09-26T12:02:11.292Z,47.94
2018-09-26T12:03:11.316Z,46.98
2018-09-26T12:04:11.275Z,46.89
2018-09-26T12:05:11.194Z,49.19
2018-09-26T12:06:11.277Z,46.58
2018-09-26T12:07:11.180Z,47.15
2018-09-26T12:08:11.238Z,47.94
2018-09-26T12:09:11.062Z,49.51
2018-09-26T12:10:11.056Z,48.07
2018-09-26T12:11:10.994Z,46.62
2018-09-26T12:12:11.042Z,47.31
2018-09-26T12:13:10.943Z,45.80
2018-09-26T12:14:11.027Z,51.09
2018-09-26T12:15:10.884Z,48.66
2018-09-26T12:16:10.892Z,45.22
2018-09-26T12:17:10.823Z,44.24
2018-09-26T12:18:10.836Z,44.05
2018-09-26T12:19:10.785Z,42.80
2018-09-26T12:20:10.725Z,42.80
2018-09-26T12:21:10.721Z,42.80
2018-09-26T12:22:10.687Z,45.80
2018-09-26T12:23:10.648Z,44.35
2018-09-26T12:24:10.691Z,42.22
2018-09-26T12:25:10.630Z,43.28
2018-09-26T12:26:10.550Z,43.45
2018-09-26T12:27:10.549Z,43.14
2018-09-26T12:28:10.511Z,42.94
2018-09-26T12:29:10.474Z,43.98
2018-09-26T12:30:10.440Z,46.86
2018-09-26T12:31:10.418Z,46.67
2018-09-26T12:32:10.386Z,48.30
2018-09-26T12:33:10.353Z,45.42
2018-09-26T12:34:10.419Z,45.71
2018-09-26T12:35:10.321Z,45.23
2018-09-26T12:36:10.326Z,44.65
2018-09-26T12:37:10.229Z,46.19
2018-09-26T12:38:10.218Z,48.11
2018-09-26T12:39:10.271Z,44.48
2018-09-26T12:40:10.183Z,49.19
2018-09-26T12:41:10.169Z,49.74
2018-09-26T12:42:10.124Z,46.28
2018-09-26T12:43:10.133Z,45.71
2018-09-26T12:44:10.028Z,45.04
2018-09-26T12:45:10.036Z,47.44
2018-09-26T12:46:10.044Z,44.82
2018-09-26T12:47:09.958Z,48.21
2018-09-26T12:48:10.019Z,49.65
2018-09-26T12:49:09.941Z,49.15
2018-09-26T12:50:09.872Z,47.13
2018-09-26T12:51:09.835Z,51.95
2018-09-26T12:52:09.821Z,51.57